<?xml version="1.0" encoding="UTF-8" standalone="no" ?>
<gpx xmlns="http://www.topografix.com/GPX/1/1" xmlns:xsi="http://www.w3.org/2001/XMLSchema-instance" xsi:schemaLocation="http://www.topografix.com/GPX/1/1 http://www.topografix.com/GPX/1/1/gpx.xsd" version="1.1" creator="VisuGPX - https://www.visugpx.com">
  <metadata>
    <name>boucles beaumont</name>
    <desc><![CDATA[boucles beaumont du périgord]]></desc>
  </metadata>
  <trk>
    <name><![CDATA[BBmt08]]></name>
    <trkseg>
      <trkpt lat="44.79508" lon="0.78513">
        <ele>104</ele>
        <time>2008-12-08T11:27:34Z</time>
      </trkpt>
      <trkpt lat="44.79505" lon="0.78543">
        <ele>101</ele>
        <time>2008-12-08T11:29:45Z</time>
      </trkpt>
      <trkpt lat="44.79503" lon="0.78573">
        <ele>104</ele>
        <time>2008-12-08T11:29:50Z</time>
      </trkpt>
      <trkpt lat="44.79505" lon="0.786">
        <ele>105</ele>
        <time>2008-12-08T11:29:57Z</time>
      </trkpt>
      <trkpt lat="44.79518" lon="0.78625">
        <ele>106</ele>
        <time>2008-12-08T11:30:03Z</time>
      </trkpt>
      <trkpt lat="44.7952" lon="0.78653">
        <ele>103</ele>
        <time>2008-12-08T11:30:08Z</time>
      </trkpt>
      <trkpt lat="44.79513" lon="0.78678">
        <ele>103</ele>
        <time>2008-12-08T11:30:12Z</time>
      </trkpt>
      <trkpt lat="44.79508" lon="0.78705">
        <ele>103</ele>
        <time>2008-12-08T11:30:16Z</time>
      </trkpt>
      <trkpt lat="44.79513" lon="0.78733">
        <ele>104</ele>
        <time>2008-12-08T11:30:20Z</time>
      </trkpt>
      <trkpt lat="44.79528" lon="0.78755">
        <ele>104</ele>
        <time>2008-12-08T11:30:24Z</time>
      </trkpt>
      <trkpt lat="44.7954" lon="0.78778">
        <ele>105</ele>
        <time>2008-12-08T11:30:28Z</time>
      </trkpt>
      <trkpt lat="44.79548" lon="0.78805">
        <ele>105</ele>
        <time>2008-12-08T11:30:33Z</time>
      </trkpt>
      <trkpt lat="44.79545" lon="0.78835">
        <ele>105</ele>
        <time>2008-12-08T11:30:39Z</time>
      </trkpt>
      <trkpt lat="44.79543" lon="0.78865">
        <ele>104</ele>
        <time>2008-12-08T11:30:44Z</time>
      </trkpt>
      <trkpt lat="44.79545" lon="0.78893">
        <ele>108</ele>
        <time>2008-12-08T11:30:49Z</time>
      </trkpt>
      <trkpt lat="44.79545" lon="0.78923">
        <ele>108</ele>
        <time>2008-12-08T11:30:55Z</time>
      </trkpt>
      <trkpt lat="44.79538" lon="0.7895">
        <ele>104</ele>
        <time>2008-12-08T11:31:01Z</time>
      </trkpt>
      <trkpt lat="44.79533" lon="0.78978">
        <ele>103</ele>
        <time>2008-12-08T11:31:16Z</time>
      </trkpt>
      <trkpt lat="44.79538" lon="0.79005">
        <ele>105</ele>
        <time>2008-12-08T11:31:21Z</time>
      </trkpt>
      <trkpt lat="44.7954" lon="0.79035">
        <ele>106</ele>
        <time>2008-12-08T11:31:26Z</time>
      </trkpt>
      <trkpt lat="44.79535" lon="0.79063">
        <ele>103</ele>
        <time>2008-12-08T11:31:30Z</time>
      </trkpt>
      <trkpt lat="44.79525" lon="0.7909">
        <ele>103</ele>
        <time>2008-12-08T11:31:35Z</time>
      </trkpt>
      <trkpt lat="44.79515" lon="0.79118">
        <ele>102</ele>
        <time>2008-12-08T11:31:40Z</time>
      </trkpt>
      <trkpt lat="44.79508" lon="0.79145">
        <ele>101</ele>
        <time>2008-12-08T11:31:45Z</time>
      </trkpt>
      <trkpt lat="44.79498" lon="0.7917">
        <ele>99</ele>
        <time>2008-12-08T11:31:49Z</time>
      </trkpt>
      <trkpt lat="44.7949" lon="0.79195">
        <ele>96</ele>
        <time>2008-12-08T11:31:53Z</time>
      </trkpt>
      <trkpt lat="44.7948" lon="0.79223">
        <ele>95</ele>
        <time>2008-12-08T11:31:58Z</time>
      </trkpt>
      <trkpt lat="44.79468" lon="0.79243">
        <ele>99</ele>
        <time>2008-12-08T11:32:03Z</time>
      </trkpt>
      <trkpt lat="44.79455" lon="0.79263">
        <ele>106</ele>
        <time>2008-12-08T11:32:08Z</time>
      </trkpt>
      <trkpt lat="44.7944" lon="0.7928">
        <ele>114</ele>
        <time>2008-12-08T11:32:13Z</time>
      </trkpt>
      <trkpt lat="44.79425" lon="0.79295">
        <ele>112</ele>
        <time>2008-12-08T11:32:20Z</time>
      </trkpt>
      <trkpt lat="44.79408" lon="0.7931">
        <ele>110</ele>
        <time>2008-12-08T11:32:31Z</time>
      </trkpt>
      <trkpt lat="44.79393" lon="0.79325">
        <ele>111</ele>
        <time>2008-12-08T11:32:35Z</time>
      </trkpt>
      <trkpt lat="44.79383" lon="0.79353">
        <ele>114</ele>
        <time>2008-12-08T11:32:39Z</time>
      </trkpt>
      <trkpt lat="44.79373" lon="0.79383">
        <ele>118</ele>
        <time>2008-12-08T11:32:44Z</time>
      </trkpt>
      <trkpt lat="44.79365" lon="0.79408">
        <ele>122</ele>
        <time>2008-12-08T11:32:48Z</time>
      </trkpt>
      <trkpt lat="44.79355" lon="0.79435">
        <ele>123</ele>
        <time>2008-12-08T11:32:52Z</time>
      </trkpt>
      <trkpt lat="44.79348" lon="0.79463">
        <ele>124</ele>
        <time>2008-12-08T11:32:56Z</time>
      </trkpt>
      <trkpt lat="44.79338" lon="0.7949">
        <ele>123</ele>
        <time>2008-12-08T11:33:01Z</time>
      </trkpt>
      <trkpt lat="44.79333" lon="0.79515">
        <ele>122</ele>
        <time>2008-12-08T11:33:06Z</time>
      </trkpt>
      <trkpt lat="44.79323" lon="0.79543">
        <ele>120</ele>
        <time>2008-12-08T11:33:12Z</time>
      </trkpt>
      <trkpt lat="44.7931" lon="0.79568">
        <ele>119</ele>
        <time>2008-12-08T11:33:18Z</time>
      </trkpt>
      <trkpt lat="44.793" lon="0.79593">
        <ele>116</ele>
        <time>2008-12-08T11:33:24Z</time>
      </trkpt>
      <trkpt lat="44.79288" lon="0.79613">
        <ele>111</ele>
        <time>2008-12-08T11:33:32Z</time>
      </trkpt>
      <trkpt lat="44.79273" lon="0.79633">
        <ele>110</ele>
        <time>2008-12-08T11:33:39Z</time>
      </trkpt>
      <trkpt lat="44.79258" lon="0.79648">
        <ele>111</ele>
        <time>2008-12-08T11:33:44Z</time>
      </trkpt>
      <trkpt lat="44.79245" lon="0.7967">
        <ele>113</ele>
        <time>2008-12-08T11:33:49Z</time>
      </trkpt>
      <trkpt lat="44.79238" lon="0.79698">
        <ele>115</ele>
        <time>2008-12-08T11:33:56Z</time>
      </trkpt>
      <trkpt lat="44.79235" lon="0.79728">
        <ele>120</ele>
        <time>2008-12-08T11:34:29Z</time>
      </trkpt>
      <trkpt lat="44.79205" lon="0.79995">
        <ele>123</ele>
        <time>2008-12-08T11:34:37Z</time>
      </trkpt>
    </trkseg>
  </trk>
</gpx>